This is the latest recevied weather packets stored in our database for station/object XE2MEM-21. If no packets are shown the sender has not sent any weather packets the latest 10 day(s).
| Time | Temp. | Humidity | Pressure | Rain* | Wind** | Luminosity | Snow |
|---|---|---|---|---|---|---|---|
| 1777690620 | 21.67° C | 100% | 1009.1 hPa | - | - | - | - |
| 1777690504 | 22.22° C | 100% | 1009 hPa | - | - | - | - |
| 1777690463 | 21.67° C | 100% | 1009 hPa | - | - | - | - |
| 1777690201 | 21.67° C | 100% | 1008.8 hPa | - | - | - | - |
| 1777689528 | 22.22° C | 100% | 1008.5 hPa | - | - | - | - |
| 1777689497 | 21.67° C | 100% | 1008.5 hPa | - | - | - | - |
| 1777689330 | 21.67° C | 100% | 1008.4 hPa | - | - | - | - |
| 1777669771 | 27.78° C | 100% | 1002.3 hPa | - | - | - | - |
| 1777668871 | 27.22° C | 100% | 1002.4 hPa | - | - | - | - |
| 1777667970 | 28.89° C | 100% | 1002.4 hPa | - | - | - | - |
| 1777667070 | 28.89° C | 100% | 1002.6 hPa | - | - | - | - |
| 1777666170 | 28.33° C | 100% | 1002.8 hPa | - | - | - | - |
| 1777665270 | 30.56° C | 100% | 1002.9 hPa | - | - | - | - |
| 1777664370 | 28.89° C | 100% | 1003.1 hPa | - | - | - | - |
| 1777663470 | 28.89° C | 100% | 1003.1 hPa | - | - | - | - |
| 1777662570 | 30° C | 100% | 1003.1 hPa | - | - | - | - |
| 1777661670 | 28.33° C | 100% | 1003.3 hPa | - | - | - | - |
| 1777660770 | 27.22° C | 100% | 1003.7 hPa | - | - | - | - |
| 1777659870 | 26.67° C | 100% | 1003.9 hPa | - | - | - | - |
| 1777658970 | 26.11° C | 100% | 1003.8 hPa | - | - | - | - |
| 1777658071 | 27.22° C | 100% | 1003.8 hPa | - | - | - | - |
| 1777657168 | 30° C | 100% | 1003.5 hPa | - | - | - | - |
| 1777656268 | 31.11° C | 100% | 1003.8 hPa | - | - | - | - |
| 1777655368 | 33.33° C | 97% | 1003.7 hPa | - | - | - | - |
| 1777654468 | 32.22° C | 100% | 1004 hPa | - | - | - | - |
* Rain since midnight (hover to see other rain measurements)
** Current wind speed in m/s (hover to see current wind gust speed)